Time;durP1;ratioP1;P1;durP2;ratioP2;P2;SDS_P1;SDS_P2;PMS_P1;PMS_P2;Temp;Humidity;BMP_temperature;BMP_pressure;BME280_temperature;BME280_humidity;BME280_pressure;Samples;Min_cycle;Max_cycle;Signal;HPM_P1;HPM_P2
2022/10/07 00:00:39;;;;;;;;;;;;;;;10.49;74.00;102710.03;5048163;28;19964;-66
2022/10/07 00:03:04;;;;;;;;;;;;;;;10.47;73.57;102705.56;5037089;28;19924;-65
2022/10/07 00:05:29;;;;;;;;;;;;;;;10.46;74.19;102706.34;5047529;28;19913;-65
2022/10/07 00:07:55;;;;;;;;;;;;;;;10.43;74.33;102700.19;5038115;28;20337;-65
2022/10/07 00:10:20;;;;;;;;;;;;;;;10.41;74.46;102696.59;5047886;28;19924;-66
2022/10/07 00:12:45;;;;;;;;;;;;;;;10.40;74.81;102693.91;5040411;28;19921;-66
2022/10/07 00:15:10;;;;;;;;;;;;;;;10.40;74.22;102691.31;5043881;28;19917;-66
2022/10/07 00:17:35;;;;;;;;;;;;;;;10.39;74.73;102694.72;5043003;28;19995;-70
2022/10/07 00:20:01;;;;;;;;;;;;;;;10.37;74.90;102693.72;5037788;28;19913;-70
2022/10/07 00:22:26;;;;;;;;;;;;;;;10.36;74.88;102689.34;5033662;28;20455;-70
2022/10/07 00:24:51;;;;;;;;;;;;;;;10.36;74.57;102684.16;5046783;28;20008;-70
2022/10/07 00:27:16;;;;;;;;;;;;;;;10.33;74.86;102678.72;5045158;28;19921;-70
2022/10/07 00:29:42;;;;;;;;;;;;;;;10.35;74.60;102690.16;5035427;28;19917;-70
2022/10/07 00:32:07;;;;;;;;;;;;;;;10.34;75.05;102685.75;5037858;28;19944;-70
2022/10/07 00:34:32;;;;;;;;;;;;;;;10.32;75.36;102682.16;5047291;28;20003;-70
2022/10/07 00:36:57;;;;;;;;;;;;;;;10.27;75.37;102674.97;5037867;28;19931;-70
2022/10/07 00:39:23;;;;;;;;;;;;;;;10.23;75.64;102675.59;5031973;28;20305;-70
2022/10/07 00:41:51;;;;;;;;;;;;;;;10.23;75.31;102674.72;5029112;28;19917;-70
2022/10/07 00:44:25;;;;;;;;;;;;;;;10.22;75.69;102666.00;5035504;28;19921;-70
2022/10/07 00:46:54;;;;;;;;;;;;;;;10.20;75.54;102664.13;5040394;28;19924;-70
2022/10/07 00:49:19;;;;;;;;;;;;;;;10.18;75.70;102664.06;5029278;28;19987;-70
2022/10/07 00:51:44;;;;;;;;;;;;;;;10.18;76.40;102668.34;5037408;28;19968;-70
2022/10/07 00:54:12;;;;;;;;;;;;;;;10.13;75.55;102660.28;5036751;28;19925;-70
2022/10/07 00:56:39;;;;;;;;;;;;;;;10.11;75.80;102661.94;5033516;28;19924;-70
2022/10/07 00:59:05;;;;;;;;;;;;;;;10.13;76.02;102654.19;5034836;28;19967;-70
2022/10/07 01:01:30;;;;;;;;;;;;;;;10.13;75.77;102655.09;5037826;28;20491;-70
2022/10/07 01:03:55;;;;;;;;;;;;;;;10.13;75.93;102655.09;5028646;28;20573;-70
2022/10/07 01:06:21;;;;;;;;;;;;;;;10.13;75.79;102649.88;5021814;28;20494;-70
2022/10/07 01:08:47;;;;;;;;;;;;;;;10.12;75.87;102648.06;5023907;28;20415;-70
2022/10/07 01:11:32;;;;;;;;;;;;;;;10.09;75.91;102642.69;5020568;28;20012;-70
2022/10/07 01:14:17;;;;;;;;;;;;;;;10.09;76.14;102648.81;5010061;28;20411;-70
2022/10/07 01:16:46;;;;;;;;;;;;;;;10.06;76.17;102637.31;5019272;28;19917;-70
2022/10/07 01:19:30;;;;;;;;;;;;;;;10.02;76.00;102636.28;5019743;28;19948;-70
2022/10/07 01:22:18;;;;;;;;;;;;;;;10.00;76.13;102630.06;5020772;28;20488;-70
2022/10/07 01:25:06;;;;;;;;;;;;;;;10.00;76.12;102629.19;5019927;28;19921;-70
2022/10/07 01:27:33;;;;;;;;;;;;;;;10.00;76.13;102631.78;5019291;28;19971;-70
2022/10/07 01:30:02;;;;;;;;;;;;;;;10.01;76.07;102626.66;5020688;28;19929;-70
2022/10/07 01:32:33;;;;;;;;;;;;;;;10.02;76.33;102627.56;5020388;28;20946;-70
2022/10/07 01:35:00;;;;;;;;;;;;;;;10.01;76.44;102621.47;5021299;28;19932;-70
2022/10/07 01:37:27;;;;;;;;;;;;;;;9.97;76.34;102614.28;5022438;28;19928;-70
2022/10/07 01:39:55;;;;;;;;;;;;;;;9.91;76.51;102607.03;5019054;28;20380;-70
2022/10/07 01:42:21;;;;;;;;;;;;;;;9.87;76.31;102605.06;5019825;28;20116;-69
2022/10/07 01:44:49;;;;;;;;;;;;;;;9.83;76.63;102602.22;5038528;28;19963;-70
2022/10/07 01:47:14;;;;;;;;;;;;;;;9.81;76.65;102594.31;5032721;28;19920;-66
2022/10/07 01:49:40;;;;;;;;;;;;;;;9.75;76.69;102594.00;5033909;28;19924;-65
2022/10/07 01:52:27;;;;;;;;;;;;;;;9.75;76.75;102578.38;5037167;28;19927;-65
2022/10/07 01:55:06;;;;;;;;;;;;;;;9.74;77.07;102581.78;5026424;28;19917;-66
2022/10/07 01:57:51;;;;;;;;;;;;;;;9.74;77.26;102580.06;5021711;28;19951;-65
2022/10/07 02:00:16;;;;;;;;;;;;;;;9.72;77.13;102567.81;5029455;28;20067;-66
2022/10/07 02:02:50;;;;;;;;;;;;;;;9.71;76.97;102566.88;5049048;28;20348;-66
2022/10/07 02:05:16;;;;;;;;;;;;;;;9.69;76.92;102568.53;5031078;28;19931;-65
2022/10/07 02:07:41;;;;;;;;;;;;;;;9.66;76.99;102567.44;5038742;28;20296;-65
2022/10/07 02:10:07;;;;;;;;;;;;;;;9.65;77.02;102565.66;5045122;28;19928;-66
2022/10/07 02:12:39;;;;;;;;;;;;;;;9.64;76.96;102572.56;5044691;28;20371;-65
2022/10/07 02:15:04;;;;;;;;;;;;;;;9.64;76.98;102566.47;5038928;28;20335;-65
2022/10/07 02:17:31;;;;;;;;;;;;;;;9.60;76.79;102557.59;5039142;28;20398;-66
2022/10/07 02:19:58;;;;;;;;;;;;;;;9.58;77.03;102552.28;5030490;28;19970;-65
2022/10/07 02:22:25;;;;;;;;;;;;;;;9.59;76.91;102555.81;5035535;28;19917;-65
2022/10/07 02:24:54;;;;;;;;;;;;;;;9.56;76.80;102545.25;5031334;28;20329;-65
2022/10/07 02:27:23;;;;;;;;;;;;;;;9.53;76.97;102551.16;5035282;28;20396;-65
2022/10/07 02:29:51;;;;;;;;;;;;;;;9.53;77.04;102547.66;5036758;28;20299;-65
2022/10/07 02:32:18;;;;;;;;;;;;;;;9.52;77.19;102540.66;5038250;28;19921;-65
2022/10/07 02:34:45;;;;;;;;;;;;;;;9.51;77.19;102537.16;5028437;28;20396;-65
2022/10/07 02:37:13;;;;;;;;;;;;;;;9.49;77.40;102536.19;5037139;28;19928;-65
2022/10/07 02:39:39;;;;;;;;;;;;;;;9.48;77.43;102531.78;5041367;28;19954;-65
2022/10/07 02:42:22;;;;;;;;;;;;;;;9.47;77.40;102530.00;5036697;28;19955;-65
2022/10/07 02:44:50;;;;;;;;;;;;;;;9.44;77.42;102523.72;5027707;28;19990;-65
2022/10/07 02:47:32;;;;;;;;;;;;;;;9.38;77.62;102520.00;5025018;28;19922;-69
2022/10/07 02:50:00;;;;;;;;;;;;;;;9.37;77.61;102523.41;5034340;28;19927;-69
2022/10/07 02:52:30;;;;;;;;;;;;;;;9.38;77.46;102519.06;5029893;28;19937;-69
2022/10/07 02:54:58;;;;;;;;;;;;;;;9.35;77.51;102514.59;5027234;28;20008;-69
2022/10/07 02:57:25;;;;;;;;;;;;;;;9.36;77.47;102513.78;5031391;28;19917;-69
2022/10/07 02:59:51;;;;;;;;;;;;;;;9.35;77.49;102508.50;5041355;28;20015;-69
2022/10/07 03:02:20;;;;;;;;;;;;;;;9.33;77.61;102510.16;5033829;28;19920;-70
2022/10/07 03:04:46;;;;;;;;;;;;;;;9.31;77.72;102507.47;5026372;28;19917;-69
2022/10/07 03:07:12;;;;;;;;;;;;;;;9.29;77.53;102508.19;5034925;28;19921;-69
2022/10/07 03:09:38;;;;;;;;;;;;;;;9.25;77.73;102503.59;5036834;28;19966;-69
2022/10/07 03:12:04;;;;;;;;;;;;;;;9.21;78.02;102500.84;5027461;28;19925;-69
2022/10/07 03:14:29;;;;;;;;;;;;;;;9.20;77.90;102499.03;5042235;28;20335;-69
2022/10/07 03:16:54;;;;;;;;;;;;;;;9.18;78.02;102497.16;5027470;28;20032;-69
2022/10/07 03:19:20;;;;;;;;;;;;;;;9.14;78.00;102490.91;5028304;28;19980;-69
2022/10/07 03:21:46;;;;;;;;;;;;;;;9.14;78.04;102498.72;5031349;28;19920;-69
2022/10/07 03:24:11;;;;;;;;;;;;;;;9.14;77.88;102485.69;5032725;28;19917;-69
2022/10/07 03:26:36;;;;;;;;;;;;;;;9.13;78.10;102480.41;5030769;28;19917;-69
2022/10/07 03:29:02;;;;;;;;;;;;;;;9.10;78.39;102480.25;5034136;28;19929;-69
2022/10/07 03:31:27;;;;;;;;;;;;;;;9.09;78.44;102479.34;5034099;28;19921;-69
2022/10/07 03:33:54;;;;;;;;;;;;;;;9.11;78.50;102477.72;5034413;28;19983;-69
2022/10/07 03:36:19;;;;;;;;;;;;;;;9.10;78.25;102472.44;5037911;28;20400;-69
2022/10/07 03:38:44;;;;;;;;;;;;;;;9.09;78.56;102474.13;5039440;28;19917;-69
2022/10/07 03:41:09;;;;;;;;;;;;;;;9.10;78.43;102478.53;5038199;28;19971;-69
2022/10/07 03:43:35;;;;;;;;;;;;;;;9.11;78.12;102472.53;5044962;28;19916;-69
2022/10/07 03:46:01;;;;;;;;;;;;;;;9.10;78.11;102470.72;5038050;28;19921;-70
2022/10/07 03:48:26;;;;;;;;;;;;;;;9.06;78.51;102463.56;5029148;28;19945;-69
2022/10/07 03:50:52;;;;;;;;;;;;;;;9.03;78.39;102466.88;5032039;28;20022;-69
2022/10/07 03:53:18;;;;;;;;;;;;;;;9.03;78.51;102466.00;5029156;28;19921;-69
2022/10/07 03:55:44;;;;;;;;;;;;;;;9.00;78.54;102468.44;5038516;28;19962;-69
2022/10/07 03:58:09;;;;;;;;;;;;;;;8.98;78.81;102464.84;5037414;28;20568;-69
2022/10/07 04:00:35;;;;;;;;;;;;;;;8.95;78.61;102464.66;5036582;28;19920;-69
2022/10/07 04:03:00;;;;;;;;;;;;;;;8.91;78.61;102463.59;5034875;28;19945;-69
2022/10/07 04:05:26;;;;;;;;;;;;;;;8.92;79.09;102459.28;5027380;28;19918;-69
2022/10/07 04:07:51;;;;;;;;;;;;;;;8.91;79.17;102457.50;5032929;28;20051;-69
2022/10/07 04:10:20;;;;;;;;;;;;;;;8.91;78.85;102460.09;5022365;28;20004;-69
2022/10/07 04:12:47;;;;;;;;;;;;;;;8.88;79.14;102458.25;5021909;28;19987;-69
2022/10/07 04:15:12;;;;;;;;;;;;;;;8.86;78.86;102455.56;5022065;28;19921;-69
2022/10/07 04:17:41;;;;;;;;;;;;;;;8.84;78.82;102456.28;5032146;28;19920;-69
2022/10/07 04:20:07;;;;;;;;;;;;;;;8.83;78.93;102452.75;5035321;28;19913;-69
2022/10/07 04:22:32;;;;;;;;;;;;;;;8.82;78.84;102453.59;5038545;28;19917;-69
2022/10/07 04:27:41;;;;;;;;;;;;;;;8.80;78.96;102446.50;5035231;28;20125;-69
2022/10/07 04:30:07;;;;;;;;;;;;;;;8.80;79.13;102439.59;5035580;28;20098;-69
2022/10/07 04:32:33;;;;;;;;;;;;;;;8.82;79.29;102447.47;5045625;28;20008;-69
2022/10/07 04:35:00;;;;;;;;;;;;;;;8.80;79.34;102450.00;5030777;28;19995;-69
2022/10/07 04:37:26;;;;;;;;;;;;;;;8.80;79.46;102455.19;5034283;28;20373;-69
2022/10/07 04:39:51;;;;;;;;;;;;;;;8.79;79.61;102456.03;5046409;28;19962;-69
2022/10/07 04:45:00;;;;;;;;;;;;;;;8.75;79.36;102454.03;5038711;28;19924;-69
2022/10/07 04:47:25;;;;;;;;;;;;;;;8.74;79.21;102454.84;5047425;28;20307;-70
2022/10/07 04:49:52;;;;;;;;;;;;;;;8.72;79.34;102451.28;5037846;28;20008;-69
2022/10/07 04:52:19;;;;;;;;;;;;;;;8.72;79.20;102447.75;5046005;28;19936;-69
2022/10/07 04:54:44;;;;;;;;;;;;;;;8.70;79.56;102442.47;5040511;28;20511;-69
2022/10/07 04:57:12;;;;;;;;;;;;;;;8.69;79.42;102440.72;5038788;28;19966;-69
2022/10/07 04:59:37;;;;;;;;;;;;;;;8.66;79.52;102436.22;5049799;28;19920;-69
2022/10/07 05:02:02;;;;;;;;;;;;;;;8.60;79.54;102435.84;5029023;28;19924;-69
2022/10/07 05:04:27;;;;;;;;;;;;;;;8.57;79.47;102430.50;5029960;28;19917;-69
2022/10/07 05:06:53;;;;;;;;;;;;;;;8.55;79.50;102428.63;5036958;28;20004;-69
2022/10/07 05:09:18;;;;;;;;;;;;;;;8.51;79.76;102431.03;5027864;28;19963;-69
2022/10/07 05:11:43;;;;;;;;;;;;;;;8.49;79.54;102427.47;5035969;28;19990;-69
2022/10/07 05:14:08;;;;;;;;;;;;;;;8.48;79.72;102433.44;5030759;28;19917;-69
2022/10/07 05:16:33;;;;;;;;;;;;;;;8.49;79.66;102434.38;5030443;28;19917;-69
2022/10/07 05:18:58;;;;;;;;;;;;;;;8.46;79.50;102419.50;5030354;28;19916;-69
2022/10/07 05:21:24;;;;;;;;;;;;;;;8.47;79.38;102421.28;5030398;28;20047;-69
2022/10/07 05:23:49;;;;;;;;;;;;;;;8.44;79.42;102423.69;5032508;28;19916;-69
2022/10/07 05:26:15;;;;;;;;;;;;;;;8.44;79.48;102420.16;5031628;28;20015;-69
2022/10/07 05:28:42;;;;;;;;;;;;;;;8.41;79.38;102418.28;5032040;28;20334;-70
2022/10/07 05:31:09;;;;;;;;;;;;;;;8.39;79.40;102419.91;5044019;28;19927;-69
2022/10/07 05:33:35;;;;;;;;;;;;;;;8.37;79.06;102418.91;5034009;28;19971;-69
2022/10/07 05:36:00;;;;;;;;;;;;;;;8.34;79.28;102417.06;5035817;28;20363;-69
2022/10/07 05:38:25;;;;;;;;;;;;;;;8.32;79.28;102417.75;5035223;28;19925;-69
2022/10/07 05:40:54;;;;;;;;;;;;;;;8.33;79.46;102414.38;5032474;28;20331;-69
2022/10/07 05:43:19;;;;;;;;;;;;;;;8.33;79.57;102414.38;5038869;28;19921;-69
2022/10/07 05:45:46;;;;;;;;;;;;;;;8.32;79.59;102409.97;5029476;28;19929;-69
2022/10/07 05:48:11;;;;;;;;;;;;;;;8.29;79.63;102413.28;5032278;28;19928;-65
2022/10/07 05:50:38;;;;;;;;;;;;;;;8.27;80.07;102411.38;5033658;28;19913;-66
2022/10/07 05:53:03;;;;;;;;;;;;;;;8.23;80.06;102412.03;5033722;28;19931;-65
2022/10/07 05:55:29;;;;;;;;;;;;;;;8.21;80.11;102413.63;5032354;28;20295;-65
2022/10/07 05:57:54;;;;;;;;;;;;;;;8.21;80.37;102395.47;5033159;28;20415;-65
2022/10/07 06:00:19;;;;;;;;;;;;;;;8.20;80.27;102402.38;5037686;28;19924;-65
2022/10/07 06:02:45;;;;;;;;;;;;;;;8.24;80.46;102404.34;5029934;28;20287;-65
2022/10/07 06:05:10;;;;;;;;;;;;;;;8.26;80.69;102396.63;5029993;28;20295;-65
2022/10/07 06:07:35;;;;;;;;;;;;;;;8.27;80.29;102393.22;5036906;28;19920;-65
2022/10/07 06:15:29;;;;;;;;;;;;;;;8.30;80.76;102398.63;5033601;28;19932;-66
2022/10/07 06:17:54;;;;;;;;;;;;;;;8.27;80.87;102388.03;5032183;28;19921;-69
2022/10/07 06:20:19;;;;;;;;;;;;;;;8.29;80.99;102394.22;5028787;28;20361;-69
2022/10/07 06:22:44;;;;;;;;;;;;;;;8.30;81.01;102388.22;5030012;28;20238;-69
2022/10/07 06:25:10;;;;;;;;;;;;;;;8.32;81.26;102384.00;5032803;28;19925;-69
2022/10/07 06:27:35;;;;;;;;;;;;;;;8.32;81.04;102386.59;5033666;28;19921;-69
2022/10/07 06:30:00;;;;;;;;;;;;;;;8.35;80.96;102394.56;5028337;28;19932;-69
2022/10/07 06:32:27;;;;;;;;;;;;;;;8.39;80.79;102385.25;5033946;28;20273;-69
2022/10/07 06:34:52;;;;;;;;;;;;;;;8.40;80.91;102384.44;5031511;28;19917;-69
2022/10/07 06:37:19;;;;;;;;;;;;;;;8.42;80.72;102385.44;5031077;28;19924;-69
2022/10/07 06:39:44;;;;;;;;;;;;;;;8.43;81.04;102384.59;5021826;28;20331;-69
2022/10/07 06:42:09;;;;;;;;;;;;;;;8.45;81.26;102388.25;5031824;28;20391;-69
2022/10/07 06:44:34;;;;;;;;;;;;;;;8.46;81.16;102396.13;5030878;28;20078;-69
2022/10/07 06:47:00;;;;;;;;;;;;;;;8.48;81.27;102384.09;5026471;28;20316;-69
2022/10/07 06:49:25;;;;;;;;;;;;;;;8.51;81.11;102391.19;5025085;28;19936;-70
2022/10/07 06:51:50;;;;;;;;;;;;;;;8.55;81.09;102394.84;5028087;28;20015;-69
2022/10/07 06:54:15;;;;;;;;;;;;;;;8.59;81.72;102387.31;5029850;28;20400;-69
2022/10/07 06:56:40;;;;;;;;;;;;;;;8.61;81.46;102395.19;5033195;28;19948;-70
2022/10/07 06:59:06;;;;;;;;;;;;;;;8.64;81.29;102387.56;5032768;28;20254;-69
2022/10/07 07:01:31;;;;;;;;;;;;;;;8.67;81.63;102390.34;5034672;28;20304;-69
2022/10/07 07:03:57;;;;;;;;;;;;;;;8.70;81.21;102391.41;5030334;28;19917;-70
2022/10/07 07:06:22;;;;;;;;;;;;;;;8.73;81.71;102395.88;5026393;28;19921;-70
2022/10/07 07:08:49;;;;;;;;;;;;;;;8.76;81.78;102396.06;5033610;28;19921;-69
2022/10/07 07:13:58;;;;;;;;;;;;;;;8.82;81.25;102396.41;5032163;28;20403;-69
2022/10/07 07:16:24;;;;;;;;;;;;;;;8.86;81.56;102387.97;5027339;28;19917;-69
2022/10/07 07:19:07;;;;;;;;;;;;;;;8.91;82.40;102389.91;5031029;28;19917;-69
2022/10/07 07:21:33;;;;;;;;;;;;;;;8.95;81.94;102391.88;5033538;28;20200;-69
2022/10/07 07:23:58;;;;;;;;;;;;;;;9.01;81.73;102397.44;5027602;28;20019;-69
2022/10/07 07:26:23;;;;;;;;;;;;;;;9.07;81.65;102402.03;5026821;28;19925;-69
2022/10/07 07:29:02;;;;;;;;;;;;;;;9.10;82.29;102399.63;5024580;28;19925;-69
2022/10/07 07:31:28;;;;;;;;;;;;;;;9.16;82.21;102395.66;5027187;28;19970;-69
2022/10/07 07:33:54;;;;;;;;;;;;;;;9.20;81.65;102400.22;5033350;28;20021;-69
2022/10/07 07:36:23;;;;;;;;;;;;;;;9.28;82.93;102399.72;5027970;28;20799;-69
2022/10/07 07:38:53;;;;;;;;;;;;;;;9.33;82.04;102396.56;5032323;28;20469;-69
2022/10/07 07:41:20;;;;;;;;;;;;;;;9.38;81.67;102395.13;5027474;28;19920;-69
2022/10/07 07:43:49;;;;;;;;;;;;;;;9.44;81.60;102391.03;5034667;28;20404;-69
2022/10/07 07:46:16;;;;;;;;;;;;;;;9.47;81.23;102389.50;5027053;28;20388;-69
2022/10/07 07:48:42;;;;;;;;;;;;;;;9.53;81.88;102388.91;5023228;28;19924;-68
2022/10/07 07:51:07;;;;;;;;;;;;;;;9.59;81.95;102389.25;5025461;28;19917;-68
2022/10/07 07:53:33;;;;;;;;;;;;;;;9.65;81.64;102384.38;5024028;28;19932;-68
2022/10/07 07:55:58;;;;;;;;;;;;;;;9.72;81.94;102390.81;5032360;28;19920;-69
2022/10/07 07:58:23;;;;;;;;;;;;;;;9.79;81.11;102382.50;5025736;28;19947;-65
2022/10/07 08:00:58;;;;;;;;;;;;;;;9.84;82.08;102387.94;5022823;28;19925;-65
2022/10/07 08:03:24;;;;;;;;;;;;;;;9.88;81.31;102382.06;5029443;28;19932;-65
2022/10/07 08:05:49;;;;;;;;;;;;;;;9.93;81.51;102388.38;5044476;28;19920;-65
2022/10/07 08:08:14;;;;;;;;;;;;;;;9.97;81.41;102386.84;5040982;28;19944;-65
2022/10/07 08:10:41;;;;;;;;;;;;;;;10.02;81.19;102385.34;5034942;28;20008;-65
2022/10/07 08:13:06;;;;;;;;;;;;;;;10.08;81.00;102380.47;5035981;28;19935;-65
2022/10/07 08:15:32;;;;;;;;;;;;;;;10.13;81.38;102380.72;5033656;28;19928;-65
2022/10/07 08:17:57;;;;;;;;;;;;;;;10.18;81.08;102379.22;5032925;28;19964;-65
2022/10/07 08:20:22;;;;;;;;;;;;;;;10.21;81.31;102382.88;5033204;28;19917;-65
2022/10/07 08:22:48;;;;;;;;;;;;;;;10.25;81.41;102384.81;5033460;28;19917;-65
2022/10/07 08:25:15;;;;;;;;;;;;;;;10.30;81.63;102378.91;5025605;28;19921;-65
2022/10/07 08:27:40;;;;;;;;;;;;;;;10.35;80.69;102385.31;5033415;28;19921;-68
2022/10/07 08:30:06;;;;;;;;;;;;;;;10.40;80.54;102370.81;5033658;28;20288;-69
2022/10/07 08:32:31;;;;;;;;;;;;;;;10.47;80.64;102375.50;5031786;28;19921;-69
2022/10/07 08:34:56;;;;;;;;;;;;;;;10.53;80.53;102378.38;5034349;28;20596;-69
2022/10/07 08:37:21;;;;;;;;;;;;;;;10.61;80.97;102373.53;5035580;28;20008;-69
2022/10/07 08:39:46;;;;;;;;;;;;;;;10.65;80.17;102365.03;5028024;28;20442;-69
2022/10/07 08:42:17;;;;;;;;;;;;;;;10.71;80.64;102374.88;5031689;28;20388;-68
2022/10/07 08:44:45;;;;;;;;;;;;;;;10.78;80.72;102366.53;5045672;28;19928;-69
2022/10/07 08:47:14;;;;;;;;;;;;;;;10.85;81.02;102365.06;5032385;28;19936;-69
2022/10/07 08:50:00;;;;;;;;;;;;;;;10.90;80.83;102358.38;5037591;28;19987;-69
2022/10/07 08:52:33;;;;;;;;;;;;;;;10.94;80.42;102355.97;5034266;28;19968;-69
2022/10/07 08:55:00;;;;;;;;;;;;;;;11.02;80.22;102355.44;5030897;28;20407;-69
2022/10/07 08:57:46;;;;;;;;;;;;;;;11.08;80.34;102345.28;5024937;28;19975;-69
2022/10/07 09:00:14;;;;;;;;;;;;;;;11.17;80.00;102344.84;5040155;28;19956;-69
2022/10/07 09:02:42;;;;;;;;;;;;;;;11.23;80.20;102332.94;5044476;28;19924;-69
2022/10/07 09:05:24;;;;;;;;;;;;;;;11.28;79.91;102323.63;5035007;28;19916;-69
2022/10/07 09:07:56;;;;;;;;;;;;;;;11.35;79.22;102329.09;5033795;28;20408;-64
2022/10/07 09:10:22;;;;;;;;;;;;;;;11.41;79.92;102324.16;5037125;28;19922;-65
2022/10/07 09:12:53;;;;;;;;;;;;;;;11.47;79.40;102324.41;5035301;28;19928;-65
2022/10/07 09:15:22;;;;;;;;;;;;;;;11.53;79.42;102329.91;5026748;28;19925;-64
2022/10/07 09:18:07;;;;;;;;;;;;;;;11.58;79.33;102330.09;5032115;28;19920;-65
2022/10/07 09:20:37;;;;;;;;;;;;;;;11.63;79.50;102326.88;5039625;28;19927;-64
2022/10/07 09:23:03;;;;;;;;;;;;;;;11.72;79.36;102320.28;5034142;28;19951;-64
2022/10/07 09:25:29;;;;;;;;;;;;;;;11.78;79.19;102316.19;5032800;28;19916;-65
2022/10/07 09:27:55;;;;;;;;;;;;;;;11.87;79.05;102315.69;5032671;28;20365;-65
2022/10/07 09:30:21;;;;;;;;;;;;;;;11.95;79.41;102319.53;5038345;28;19917;-64
2022/10/07 09:32:48;;;;;;;;;;;;;;;12.02;78.71;102315.47;5041245;28;19928;-64
2022/10/07 09:35:16;;;;;;;;;;;;;;;12.10;78.85;102310.56;5042503;28;20002;-64
2022/10/07 09:38:00;;;;;;;;;;;;;;;12.15;78.70;102302.09;5039800;28;19917;-69
2022/10/07 09:40:33;;;;;;;;;;;;;;;12.23;78.64;102306.72;5044969;28;20304;-69
2022/10/07 09:42:59;;;;;;;;;;;;;;;12.27;78.69;102303.41;5032075;28;20016;-68
2022/10/07 09:45:25;;;;;;;;;;;;;;;12.35;78.23;102299.34;5033098;28;20005;-69
2022/10/07 09:47:52;;;;;;;;;;;;;;;12.45;78.27;102295.41;5044567;28;19959;-69
2022/10/07 09:50:29;;;;;;;;;;;;;;;12.54;78.18;102298.34;5031821;28;19967;-69
2022/10/07 09:52:54;;;;;;;;;;;;;;;12.67;77.50;102295.41;5038691;28;19921;-69
2022/10/07 09:55:30;;;;;;;;;;;;;;;12.80;77.36;102290.63;5036320;28;19931;-69
2022/10/07 09:58:00;;;;;;;;;;;;;;;12.90;76.90;102279.66;5028817;28;19952;-69
2022/10/07 10:00:25;;;;;;;;;;;;;;;13.00;76.31;102287.03;5032967;28;19917;-69
2022/10/07 10:02:53;;;;;;;;;;;;;;;13.09;76.36;102282.97;5029457;28;19925;-69
2022/10/07 10:05:38;;;;;;;;;;;;;;;13.17;76.35;102279.78;5030063;28;19928;-69
2022/10/07 10:08:13;;;;;;;;;;;;;;;13.27;76.16;102278.41;5022876;28;20071;-64
2022/10/07 10:10:38;;;;;;;;;;;;;;;13.38;75.66;102279.72;5025052;28;19921;-65
2022/10/07 10:13:04;;;;;;;;;;;;;;;13.51;75.23;102277.50;5031364;28;19925;-65
2022/10/07 10:15:35;;;;;;;;;;;;;;;13.66;73.74;102272.81;5030857;28;19943;-65
2022/10/07 10:18:01;;;;;;;;;;;;;;;13.80;74.12;102268.03;5028522;28;19931;-65
2022/10/07 10:20:29;;;;;;;;;;;;;;;13.94;74.37;102260.63;5028957;28;19917;-65
2022/10/07 10:22:54;;;;;;;;;;;;;;;14.10;73.78;102259.38;5029903;28;19936;-65
2022/10/07 10:28:44;;;;;;;;;;;;;;;14.42;73.11;102238.50;5029763;28;19927;-65
2022/10/07 10:31:24;;;;;;;;;;;;;;;14.56;71.64;102236.31;5029084;28;20007;-65
2022/10/07 10:34:13;;;;;;;;;;;;;;;14.66;70.64;102225.28;5028607;28;19929;-65
2022/10/07 10:36:41;;;;;;;;;;;;;;;14.84;71.41;102218.75;5022007;28;19972;-65
2022/10/07 10:39:31;;;;;;;;;;;;;;;14.98;70.67;102229.66;5026663;28;19920;-65
2022/10/07 10:41:58;;;;;;;;;;;;;;;15.11;70.59;102219.53;5028833;28;20415;-65
2022/10/07 10:44:42;;;;;;;;;;;;;;;15.25;69.97;102216.38;5029036;28;19999;-65
2022/10/07 10:47:11;;;;;;;;;;;;;;;15.37;69.69;102206.19;5029611;28;19928;-69
2022/10/07 10:49:40;;;;;;;;;;;;;;;15.49;69.58;102213.50;5035528;28;19928;-69
2022/10/07 10:52:23;;;;;;;;;;;;;;;15.53;69.84;102211.84;5029618;28;20385;-69
2022/10/07 10:54:54;;;;;;;;;;;;;;;15.55;68.76;102197.88;5035366;28;19909;-69
2022/10/07 10:57:35;;;;;;;;;;;;;;;15.60;69.26;102192.75;5028805;28;20418;-69
2022/10/07 11:00:06;;;;;;;;;;;;;;;15.72;68.79;102198.28;5028149;28;19939;-69
2022/10/07 11:02:34;;;;;;;;;;;;;;;15.81;68.23;102185.44;5033764;28;20396;-69
2022/10/07 11:04:59;;;;;;;;;;;;;;;15.91;68.48;102183.00;5027311;28;19928;-69
2022/10/07 11:07:24;;;;;;;;;;;;;;;15.98;65.96;102187.53;5029529;28;19925;-69
2022/10/07 11:09:54;;;;;;;;;;;;;;;15.99;65.88;102184.06;5031042;28;20377;-69
2022/10/07 11:12:25;;;;;;;;;;;;;;;16.02;67.46;102180.59;5029855;28;19921;-69
2022/10/07 11:14:55;;;;;;;;;;;;;;;16.08;66.45;102176.38;5031043;28;20393;-69
2022/10/07 11:17:25;;;;;;;;;;;;;;;16.17;66.42;102179.19;5031640;28;19996;-65
2022/10/07 11:20:07;;;;;;;;;;;;;;;16.30;66.95;102179.47;5027360;28;19921;-65
2022/10/07 11:22:36;;;;;;;;;;;;;;;16.43;65.46;102167.47;5027530;28;19921;-65
2022/10/07 11:25:07;;;;;;;;;;;;;;;16.55;65.70;102164.19;5029944;28;19917;-66
2022/10/07 11:27:33;;;;;;;;;;;;;;;16.61;63.95;102166.94;5031016;28;20202;-65
2022/10/07 11:30:14;;;;;;;;;;;;;;;16.61;65.01;102154.69;5032141;28;20012;-65
2022/10/07 11:32:45;;;;;;;;;;;;;;;16.65;63.81;102150.38;5033009;28;20638;-65
2022/10/07 11:35:29;;;;;;;;;;;;;;;16.70;64.63;102146.09;5035993;28;19929;-66
2022/10/07 11:37:59;;;;;;;;;;;;;;;16.76;64.12;102134.78;5043553;28;19925;-65
2022/10/07 11:40:27;;;;;;;;;;;;;;;16.77;62.99;102128.66;5035128;28;19956;-65
2022/10/07 11:42:53;;;;;;;;;;;;;;;16.77;64.18;102126.94;5042145;28;19925;-65
2022/10/07 11:45:22;;;;;;;;;;;;;;;16.81;64.41;102122.59;5045975;28;19964;-65
2022/10/07 11:47:52;;;;;;;;;;;;;;;16.90;65.22;102117.53;5043528;28;19920;-65
2022/10/07 11:50:28;;;;;;;;;;;;;;;16.98;64.46;102113.28;5031353;28;20380;-65
2022/10/07 11:53:00;;;;;;;;;;;;;;;17.01;63.62;102107.19;5044836;28;19921;-65
2022/10/07 11:55:27;;;;;;;;;;;;;;;17.03;63.63;102100.19;5033102;28;19917;-65
2022/10/07 11:57:57;;;;;;;;;;;;;;;17.02;63.15;102095.81;5037631;28;19920;-65
2022/10/07 12:00:24;;;;;;;;;;;;;;;17.06;64.34;102095.00;5031793;28;19917;-65
2022/10/07 12:02:49;;;;;;;;;;;;;;;17.16;63.46;102090.75;5032458;28;19913;-64
2022/10/07 12:05:33;;;;;;;;;;;;;;;17.27;63.33;102083.91;5031950;28;19920;-65
2022/10/07 12:08:30;;;;;;;;;;;;;;;17.35;61.49;102079.66;5034939;28;19925;-65
2022/10/07 12:11:15;;;;;;;;;;;;;;;17.37;62.67;102070.00;5025642;28;19948;-65
2022/10/07 12:13:41;;;;;;;;;;;;;;;17.39;62.57;102072.66;5039594;28;20384;-65
2022/10/07 12:16:24;;;;;;;;;;;;;;;17.43;62.12;102058.69;5030682;28;19921;-65
2022/10/07 12:19:05;;;;;;;;;;;;;;;17.46;62.54;102061.34;5040088;28;19921;-68
2022/10/07 12:21:49;;;;;;;;;;;;;;;17.54;63.07;102048.31;5023916;28;20177;-68
2022/10/07 12:24:14;;;;;;;;;;;;;;;17.60;62.23;102043.13;5035484;28;20399;-68
2022/10/07 12:26:42;;;;;;;;;;;;;;;17.61;62.61;102046.63;5031827;28;19909;-68
2022/10/07 12:29:17;;;;;;;;;;;;;;;17.63;63.37;102034.38;5036559;28;19913;-68
2022/10/07 12:31:45;;;;;;;;;;;;;;;17.73;63.11;102041.53;5052223;28;19999;-68
2022/10/07 12:34:10;;;;;;;;;;;;;;;17.82;63.42;102032.88;5039218;28;19917;-68
2022/10/07 12:36:38;;;;;;;;;;;;;;;17.87;63.16;102028.50;5042249;28;20032;-68
2022/10/07 12:39:03;;;;;;;;;;;;;;;17.89;62.38;102026.78;5032354;28;19932;-69
2022/10/07 12:41:45;;;;;;;;;;;;;;;17.89;61.97;102017.13;5032221;28;19914;-69
2022/10/07 12:44:26;;;;;;;;;;;;;;;17.87;62.10;102015.31;5033120;28;20293;-68
2022/10/07 12:46:56;;;;;;;;;;;;;;;17.91;62.47;102006.63;5031557;28;19979;-68
2022/10/07 12:49:35;;;;;;;;;;;;;;;17.93;60.30;102004.91;5034174;28;19921;-68
2022/10/07 12:52:05;;;;;;;;;;;;;;;18.01;62.31;101994.44;5035183;28;20415;-68
2022/10/07 12:54:32;;;;;;;;;;;;;;;18.07;61.93;101994.50;5034380;28;19990;-69
2022/10/07 12:56:59;;;;;;;;;;;;;;;18.06;61.12;101992.72;5035091;28;20007;-69
2022/10/07 12:59:45;;;;;;;;;;;;;;;18.06;61.23;101992.72;5032117;28;20324;-69
2022/10/07 13:02:30;;;;;;;;;;;;;;;18.06;61.05;101988.34;5031798;28;20319;-69
2022/10/07 13:05:07;;;;;;;;;;;;;;;18.03;60.77;101976.88;5035413;28;19921;-69